createdAt,value
2019-04-28T00:01:17.178Z,8.68
2019-04-28T00:03:48.684Z,8.68
2019-04-28T00:06:21.120Z,8.65
2019-04-28T00:08:52.550Z,8.59
2019-04-28T00:11:24.250Z,8.51
2019-04-28T00:13:56.136Z,8.60
2019-04-28T00:16:27.543Z,8.68
2019-04-28T00:19:00.923Z,8.58
2019-04-28T00:21:57.099Z,8.65
2019-04-28T00:24:46.109Z,8.55
2019-04-28T00:27:18.567Z,8.63
2019-04-28T00:29:51.853Z,8.65
2019-04-28T00:32:23.119Z,8.48
2019-04-28T00:34:54.529Z,8.50
2019-04-28T00:37:32.482Z,8.53
2019-04-28T00:40:04.568Z,8.53
2019-04-28T00:42:35.921Z,8.49
2019-04-28T00:45:08.922Z,8.23
2019-04-28T00:47:43.689Z,8.19
2019-04-28T00:50:14.998Z,8.13
2019-04-28T00:52:46.256Z,8.11
2019-04-28T00:55:17.693Z,7.95
2019-04-28T00:57:50.840Z,7.81
2019-04-28T01:00:23.484Z,7.88
2019-04-28T01:02:54.714Z,7.84
2019-04-28T01:05:26.378Z,7.84
2019-04-28T01:07:57.886Z,7.80
2019-04-28T01:10:30.873Z,7.83
2019-04-28T01:13:02.885Z,7.69
2019-04-28T01:15:41.192Z,7.76
2019-04-28T01:18:30.356Z,7.66
2019-04-28T01:21:02.076Z,7.63
2019-04-28T01:23:33.719Z,7.60
2019-04-28T01:26:05.352Z,7.43
2019-04-28T01:28:36.614Z,7.37
2019-04-28T01:31:26.913Z,7.40
2019-04-28T01:34:17.542Z,7.50
2019-04-28T01:36:49.555Z,7.57
2019-04-28T01:39:21.911Z,7.37
2019-04-28T01:41:53.365Z,7.17
2019-04-28T01:44:24.676Z,7.23
2019-04-28T01:46:56.014Z,7.26
2019-04-28T01:49:29.352Z,7.24
2019-04-28T01:52:01.321Z,7.16
2019-04-28T01:54:32.702Z,7.14
2019-04-28T01:57:04.155Z,7.16
2019-04-28T01:59:35.637Z,7.21
2019-04-28T02:02:09.964Z,7.20
2019-04-28T02:04:41.942Z,7.02
2019-04-28T02:07:13.334Z,7.03
2019-04-28T02:09:44.583Z,7.10
2019-04-28T02:12:15.804Z,7.13
2019-04-28T02:14:49.988Z,7.13
2019-04-28T02:17:22.701Z,7.24
2019-04-28T02:19:54.091Z,7.27
2019-04-28T02:22:33.849Z,7.30
2019-04-28T02:25:05.484Z,7.41
2019-04-28T02:27:37.406Z,7.33
2019-04-28T02:30:11.494Z,7.41
2019-04-28T02:32:43.336Z,7.26
2019-04-28T02:35:14.873Z,7.24
2019-04-28T02:37:46.796Z,7.18
2019-04-28T02:40:20.774Z,7.13
2019-04-28T02:42:52.742Z,7.16
2019-04-28T02:45:24.011Z,7.12
2019-04-28T02:48:00.963Z,7.12
2019-04-28T02:50:54.496Z,6.99
2019-04-28T02:53:33.147Z,7.06
2019-04-28T02:56:01.385Z,7.06
2019-04-28T02:58:33.163Z,7.08
2019-04-28T03:03:36.428Z,7.07
2019-04-28T03:06:10.849Z,7.23
2019-04-28T03:08:41.899Z,7.21
2019-04-28T03:11:13.249Z,7.16
2019-04-28T03:13:44.615Z,7.15
2019-04-28T03:16:16.212Z,7.23
2019-04-28T03:18:47.839Z,7.04
2019-04-28T03:21:21.393Z,7.04
2019-04-28T03:23:52.104Z,7.03
2019-04-28T03:26:33.416Z,7.10
2019-04-28T03:29:27.497Z,7.16
2019-04-28T03:32:39.962Z,7.19
2019-04-28T03:35:03.129Z,7.12
2019-04-28T03:37:32.588Z,7.20
2019-04-28T03:40:04.107Z,7.20
2019-04-28T03:42:35.940Z,7.18
2019-04-28T03:45:13.433Z,7.15
2019-04-28T03:47:44.893Z,7.16
2019-04-28T03:50:16.353Z,7.21
2019-04-28T03:52:47.748Z,7.16
2019-04-28T03:55:21.308Z,7.12
2019-04-28T03:57:52.465Z,6.92
2019-04-28T04:00:24.150Z,6.99
2019-04-28T04:02:55.801Z,7.05
2019-04-28T04:05:27.125Z,7.14
2019-04-28T04:08:00.828Z,7.14
2019-04-28T04:10:47.029Z,7.11
2019-04-28T04:13:24.362Z,7.03
2019-04-28T04:16:07.475Z,7.04
2019-04-28T04:18:47.278Z,7.00
2019-04-28T04:21:21.169Z,6.99
2019-04-28T04:23:51.847Z,6.91
2019-04-28T04:26:23.160Z,6.94
2019-04-28T04:28:54.790Z,6.89
2019-04-28T04:31:28.078Z,6.96
2019-04-28T04:34:02.604Z,7.00
2019-04-28T04:36:33.311Z,7.01
2019-04-28T04:39:06.305Z,6.94
2019-04-28T04:41:37.699Z,7.01
2019-04-28T04:44:11.269Z,6.97
2019-04-28T04:46:42.799Z,7.01
2019-04-28T04:49:14.245Z,7.09
2019-04-28T04:51:45.674Z,7.01
2019-04-28T04:54:17.172Z,7.03
2019-04-28T04:56:50.129Z,7.01
2019-04-28T04:59:21.656Z,7.04
2019-04-28T05:02:09.940Z,7.14
2019-04-28T05:04:50.644Z,7.15
2019-04-28T05:07:21.905Z,7.07
2019-04-28T05:09:53.448Z,7.21
2019-04-28T05:12:24.690Z,7.18
2019-04-28T05:14:56.140Z,7.18
2019-04-28T05:17:27.605Z,7.11
2019-04-28T05:20:01.491Z,7.18
2019-04-28T05:22:35.994Z,7.20
2019-04-28T05:25:12.138Z,7.21
2019-04-28T05:27:43.809Z,7.27
2019-04-28T05:30:15.411Z,7.27
2019-04-28T05:32:55.401Z,7.41
2019-04-28T05:35:21.957Z,7.39
2019-04-28T05:37:52.940Z,7.26
2019-04-28T05:40:24.264Z,7.38
2019-04-28T05:43:00.799Z,7.46
2019-04-28T05:45:32.740Z,7.40
2019-04-28T05:48:03.981Z,7.38
2019-04-28T05:50:40.928Z,7.29
2019-04-28T05:53:21.746Z,7.41
2019-04-28T05:56:15.211Z,7.40
2019-04-28T05:58:54.276Z,7.38
2019-04-28T06:01:54.326Z,7.52
2019-04-28T06:04:30.298Z,7.49
2019-04-28T06:07:14.958Z,7.28
2019-04-28T06:09:50.120Z,7.12
2019-04-28T06:12:21.997Z,7.18
2019-04-28T06:14:53.665Z,7.19
2019-04-28T06:17:25.089Z,7.29
2019-04-28T06:19:56.268Z,7.26
2019-04-28T06:22:27.498Z,7.20
2019-04-28T06:24:58.977Z,7.29
2019-04-28T06:27:32.680Z,7.27
2019-04-28T06:30:03.287Z,7.41
2019-04-28T06:32:35.067Z,7.33
2019-04-28T06:35:06.428Z,7.38
2019-04-28T06:37:37.657Z,7.53
2019-04-28T06:40:08.893Z,7.39
2019-04-28T06:42:40.191Z,7.24
2019-04-28T06:45:11.687Z,7.40
2019-04-28T06:47:42.916Z,7.42
2019-04-28T06:50:14.118Z,7.37
2019-04-28T06:52:45.368Z,7.46
2019-04-28T06:55:16.877Z,7.54
2019-04-28T06:57:48.489Z,7.64
2019-04-28T07:00:19.945Z,7.62
2019-04-28T07:02:51.149Z,7.62
2019-04-28T07:05:34.702Z,7.58
2019-04-28T07:08:06.115Z,7.59
2019-04-28T07:10:37.566Z,7.13
2019-04-28T07:13:09.065Z,7.71
2019-04-28T07:15:40.345Z,7.73
2019-04-28T07:18:11.727Z,7.58
2019-04-28T07:21:02.087Z,7.56
2019-04-28T07:23:34.656Z,7.53
2019-04-28T07:26:06.673Z,7.56
2019-04-28T07:28:38.220Z,7.62
2019-04-28T07:31:09.788Z,7.66
2019-04-28T07:33:41.159Z,7.62
2019-04-28T07:36:12.896Z,7.58
2019-04-28T07:38:44.483Z,7.57
2019-04-28T07:41:15.910Z,7.41
2019-04-28T07:43:47.161Z,7.40
2019-04-28T07:46:18.562Z,7.44
2019-04-28T07:48:52.419Z,7.42
2019-04-28T07:51:24.654Z,7.56
2019-04-28T07:54:04.965Z,7.65
2019-04-28T07:56:36.455Z,7.66
2019-04-28T07:59:07.947Z,7.95
2019-04-28T08:01:39.519Z,8.05
2019-04-28T08:04:11.934Z,8.00
2019-04-28T08:06:44.602Z,8.12
2019-04-28T08:09:17.818Z,8.23
2019-04-28T08:11:49.651Z,8.39
2019-04-28T08:14:20.836Z,8.70
2019-04-28T08:16:52.158Z,8.55
2019-04-28T08:19:24.018Z,8.74
2019-04-28T08:21:56.008Z,8.74
2019-04-28T08:24:29.847Z,8.77
2019-04-28T08:27:01.290Z,8.77
2019-04-28T08:29:32.701Z,8.92
2019-04-28T08:32:14.951Z,8.88
2019-04-28T08:34:46.570Z,8.72
2019-04-28T08:37:17.794Z,9.00
2019-04-28T08:39:49.043Z,9.16
2019-04-28T08:42:20.281Z,9.25
2019-04-28T08:44:51.660Z,9.13
2019-04-28T08:47:23.471Z,9.09
2019-04-28T08:49:55.273Z,9.09
2019-04-28T08:52:26.852Z,9.25
2019-04-28T08:54:58.126Z,9.34
2019-04-28T08:57:29.793Z,9.46
2019-04-28T09:00:01.105Z,9.41
2019-04-28T09:02:32.447Z,9.54
2019-04-28T09:05:04.510Z,9.36
2019-04-28T09:07:35.932Z,9.41
2019-04-28T09:10:08.220Z,9.56
2019-04-28T09:12:40.200Z,9.62
2019-04-28T09:15:11.753Z,9.74
2019-04-28T09:17:43.373Z,9.23
2019-04-28T09:20:15.085Z,9.50
2019-04-28T09:22:46.380Z,9.74
2019-04-28T09:25:17.895Z,10.04
2019-04-28T09:27:50.573Z,10.30
2019-04-28T09:30:22.072Z,10.54
2019-04-28T09:32:53.745Z,10.66
2019-04-28T09:35:25.201Z,10.71
2019-04-28T09:37:56.753Z,10.58
2019-04-28T09:40:28.421Z,10.50
2019-04-28T09:43:21.926Z,10.55
2019-04-28T09:46:11.936Z,10.62
2019-04-28T09:48:43.134Z,10.44
2019-04-28T09:51:14.933Z,10.62
2019-04-28T09:53:46.967Z,10.69
2019-04-28T09:56:18.436Z,10.87
2019-04-28T09:58:49.639Z,10.89
2019-04-28T10:01:20.839Z,10.88
2019-04-28T10:03:52.025Z,10.51
2019-04-28T10:06:23.680Z,10.40
2019-04-28T10:08:55.505Z,10.19
2019-04-28T10:11:30.612Z,10.32
2019-04-28T10:14:02.646Z,10.72
2019-04-28T10:16:34.132Z,10.58
2019-04-28T10:19:05.802Z,10.83
2019-04-28T10:21:37.124Z,10.98
2019-04-28T10:24:08.682Z,11.42
2019-04-28T10:26:40.667Z,11.21
2019-04-28T10:29:13.762Z,10.74
2019-04-28T10:31:45.866Z,10.73
2019-04-28T10:34:17.241Z,10.57
2019-04-28T10:40:23.865Z,10.92
2019-04-28T10:42:55.252Z,10.34
2019-04-28T10:45:28.549Z,10.78
2019-04-28T10:48:00.017Z,11.03
2019-04-28T10:50:31.506Z,11.27
2019-04-28T10:53:02.759Z,11.51
2019-04-28T10:55:34.697Z,11.31
2019-04-28T10:58:07.035Z,11.48
2019-04-28T11:00:40.897Z,11.18
2019-04-28T11:03:12.331Z,10.74
2019-04-28T11:05:46.257Z,10.43
2019-04-28T11:08:32.194Z,10.93
2019-04-28T11:11:10.951Z,10.91
2019-04-28T11:13:42.436Z,11.28
2019-04-28T11:16:16.584Z,11.50
2019-04-28T11:18:48.044Z,11.87
2019-04-28T11:21:19.311Z,12.11
2019-04-28T11:23:51.244Z,11.83
2019-04-28T11:26:22.796Z,11.43
2019-04-28T11:28:54.183Z,11.60
2019-04-28T11:31:25.563Z,11.45
2019-04-28T11:34:14.263Z,11.93
2019-04-28T11:36:45.523Z,12.00
2019-04-28T11:39:22.449Z,11.80
2019-04-28T11:41:54.040Z,12.02
2019-04-28T11:44:26.654Z,11.60
2019-04-28T11:46:57.927Z,11.65
2019-04-28T11:49:29.185Z,11.91
2019-04-28T11:52:01.165Z,12.02
2019-04-28T11:54:32.739Z,11.58
2019-04-28T11:57:04.079Z,11.46
2019-04-28T11:59:35.400Z,11.78
2019-04-28T12:02:08.118Z,11.97
2019-04-28T12:04:39.559Z,12.44
2019-04-28T12:07:10.859Z,12.34
2019-04-28T12:10:05.996Z,12.60
2019-04-28T12:12:54.310Z,12.29
2019-04-28T12:15:44.509Z,12.24
2019-04-28T12:18:35.820Z,12.01
2019-04-28T12:21:07.114Z,11.87
2019-04-28T12:23:39.412Z,11.83
2019-04-28T12:26:11.256Z,11.98
2019-04-28T12:28:43.153Z,12.20
2019-04-28T12:31:16.331Z,12.21
2019-04-28T12:33:49.606Z,12.08
2019-04-28T12:36:22.422Z,12.21
2019-04-28T12:38:53.934Z,12.57
2019-04-28T12:41:25.137Z,12.73
2019-04-28T12:43:58.267Z,13.00
2019-04-28T12:46:29.508Z,13.05
2019-04-28T12:49:04.365Z,12.93
2019-04-28T12:51:36.108Z,12.80
2019-04-28T12:54:09.269Z,12.54
2019-04-28T12:56:40.560Z,12.69
2019-04-28T12:59:17.833Z,12.63
2019-04-28T13:01:59.572Z,12.57
2019-04-28T13:04:40.781Z,12.77
2019-04-28T13:07:12.143Z,12.47
2019-04-28T13:09:43.525Z,12.49
2019-04-28T13:12:14.855Z,12.97
2019-04-28T13:14:46.748Z,13.04
2019-04-28T13:17:19.289Z,12.56
2019-04-28T13:19:50.925Z,12.85
2019-04-28T13:22:22.161Z,12.80
2019-04-28T13:24:53.682Z,12.73
2019-04-28T13:27:25.363Z,12.81
2019-04-28T13:29:56.908Z,12.63
2019-04-28T13:32:28.255Z,12.99
2019-04-28T13:35:00.051Z,13.12
2019-04-28T13:37:31.487Z,13.09
2019-04-28T13:40:14.417Z,12.86
2019-04-28T13:42:52.101Z,12.79
2019-04-28T13:45:25.363Z,12.68
2019-04-28T13:48:03.405Z,12.18
2019-04-28T13:50:40.946Z,12.34
2019-04-28T13:53:20.219Z,12.59
2019-04-28T13:55:59.288Z,12.34
2019-04-28T13:58:38.770Z,12.20
2019-04-28T14:01:39.725Z,12.44
2019-04-28T14:04:36.486Z,12.64
2019-04-28T14:07:26.449Z,12.41
2019-04-28T14:10:16.551Z,12.62
2019-04-28T14:12:47.774Z,12.71
2019-04-28T14:15:20.776Z,12.85
2019-04-28T14:17:54.134Z,13.04
2019-04-28T14:20:27.730Z,12.93
2019-04-28T14:23:03.324Z,12.58
2019-04-28T14:25:37.418Z,12.62
2019-04-28T14:28:09.006Z,12.91
2019-04-28T14:30:40.570Z,13.27
2019-04-28T14:33:11.848Z,13.15
2019-04-28T14:35:44.332Z,13.07
2019-04-28T14:38:21.505Z,13.08
2019-04-28T14:40:53.106Z,13.02
2019-04-28T14:43:25.862Z,12.99
2019-04-28T14:45:57.628Z,13.19
2019-04-28T14:48:35.577Z,13.36
2019-04-28T14:51:13.263Z,13.24
2019-04-28T14:53:49.708Z,13.15
2019-04-28T14:56:20.917Z,13.19
2019-04-28T14:58:52.613Z,13.08
2019-04-28T15:01:49.041Z,13.07
2019-04-28T15:04:48.366Z,12.72
2019-04-28T15:07:38.893Z,12.72
2019-04-28T15:10:29.920Z,12.78
2019-04-28T15:13:01.687Z,12.87
2019-04-28T15:15:33.251Z,12.93
2019-04-28T15:18:04.505Z,12.76
2019-04-28T15:20:36.102Z,12.72
2019-04-28T15:23:07.393Z,12.71
2019-04-28T15:25:39.747Z,12.64
2019-04-28T15:28:11.123Z,12.65
2019-04-28T15:30:44.043Z,12.50
2019-04-28T15:33:18.798Z,12.49
2019-04-28T15:35:50.189Z,12.57
2019-04-28T15:38:21.595Z,12.58
2019-04-28T15:40:53.640Z,12.33
2019-04-28T15:43:24.870Z,11.92
2019-04-28T15:45:56.787Z,12.08
2019-04-28T15:48:28.800Z,12.11
2019-04-28T15:51:00.075Z,11.91
2019-04-28T15:53:32.584Z,11.79
2019-04-28T15:56:22.046Z,11.94
2019-04-28T15:58:53.265Z,12.00
2019-04-28T16:01:24.702Z,11.81
2019-04-28T16:03:56.721Z,11.93
2019-04-28T16:06:28.749Z,12.24
2019-04-28T16:09:01.627Z,12.11
2019-04-28T16:11:33.102Z,12.01
2019-04-28T16:14:04.689Z,12.23
2019-04-28T16:16:36.292Z,12.23
2019-04-28T16:19:07.751Z,12.09
2019-04-28T16:21:39.370Z,12.11
2019-04-28T16:24:10.941Z,12.11
2019-04-28T16:26:42.256Z,12.11
2019-04-28T16:29:13.695Z,12.20
2019-04-28T16:31:44.998Z,12.20
2019-04-28T16:34:16.280Z,12.15
2019-04-28T16:36:48.098Z,11.93
2019-04-28T16:39:19.316Z,11.85
2019-04-28T16:41:56.248Z,11.80
2019-04-28T16:44:41.862Z,11.68
2019-04-28T16:47:13.468Z,11.71
2019-04-28T16:49:44.868Z,11.72
2019-04-28T16:52:18.340Z,11.73
2019-04-28T16:55:08.757Z,11.65
2019-04-28T16:57:47.587Z,11.55
2019-04-28T17:00:25.616Z,11.67
2019-04-28T17:02:57.709Z,11.65
2019-04-28T17:05:29.616Z,11.58
2019-04-28T17:08:01.221Z,11.37
2019-04-28T17:10:32.923Z,11.43
2019-04-28T17:13:05.034Z,11.48
2019-04-28T17:15:36.353Z,11.27
2019-04-28T17:18:07.817Z,11.34
2019-04-28T17:20:39.377Z,11.41
2019-04-28T17:23:10.792Z,11.52
2019-04-28T17:25:42.782Z,11.58
2019-04-28T17:28:17.715Z,11.36
2019-04-28T17:30:49.744Z,11.29
2019-04-28T17:33:21.155Z,11.27
2019-04-28T17:35:52.536Z,11.31
2019-04-28T17:38:25.308Z,10.98
2019-04-28T17:40:56.665Z,10.96
2019-04-28T17:43:28.037Z,10.93
2019-04-28T17:46:00.102Z,10.97
2019-04-28T17:48:35.058Z,11.06
2019-04-28T17:51:06.317Z,11.14
2019-04-28T17:53:37.622Z,11.16
2019-04-28T17:56:08.868Z,11.15
2019-04-28T17:58:40.349Z,11.16
2019-04-28T18:01:48.957Z,11.17
2019-04-28T18:04:38.495Z,11.18
2019-04-28T18:07:13.999Z,11.10
2019-04-28T18:09:45.222Z,11.00
2019-04-28T18:12:16.612Z,10.97
2019-04-28T18:14:49.853Z,10.87
2019-04-28T18:17:46.283Z,10.68
2019-04-28T18:20:17.939Z,10.60
2019-04-28T18:22:49.389Z,10.56
2019-04-28T18:25:21.311Z,10.48
2019-04-28T18:27:52.659Z,10.35
2019-04-28T18:30:25.718Z,10.20
2019-04-28T18:33:07.095Z,10.09
2019-04-28T18:35:43.333Z,9.92
2019-04-28T18:38:34.130Z,9.92
2019-04-28T18:41:27.666Z,9.87
2019-04-28T18:44:09.917Z,9.86
2019-04-28T18:46:41.163Z,9.81
2019-04-28T18:49:12.513Z,9.81
2019-04-28T18:51:43.859Z,9.63
2019-04-28T18:54:15.717Z,9.66
2019-04-28T18:56:47.240Z,9.69
2019-04-28T18:59:18.777Z,9.65
2019-04-28T19:02:07.853Z,9.47
2019-04-28T19:04:39.669Z,9.27
2019-04-28T19:07:13.325Z,9.11
2019-04-28T19:09:54.064Z,9.00
2019-04-28T19:12:37.309Z,9.02
2019-04-28T19:15:26.285Z,9.08
2019-04-28T19:18:08.773Z,9.08
2019-04-28T19:20:40.302Z,9.07
2019-04-28T19:23:12.101Z,9.03
2019-04-28T19:25:45.694Z,9.02
2019-04-28T19:28:19.736Z,8.72
2019-04-28T19:30:52.997Z,8.54
2019-04-28T19:33:24.380Z,8.61
2019-04-28T19:35:55.794Z,8.68
2019-04-28T19:38:27.360Z,8.75
2019-04-28T19:40:59.036Z,8.74
2019-04-28T19:43:30.308Z,8.75
2019-04-28T19:46:04.125Z,8.75
2019-04-28T19:48:35.325Z,8.70
2019-04-28T19:51:06.600Z,8.63
2019-04-28T19:53:38.234Z,8.73
2019-04-28T19:56:15.958Z,8.66
2019-04-28T19:58:54.706Z,8.63
2019-04-28T20:01:28.621Z,8.46
2019-04-28T20:03:59.840Z,8.03
2019-04-28T20:06:31.076Z,7.78
2019-04-28T20:09:02.289Z,7.69
2019-04-28T20:11:33.855Z,7.53
2019-04-28T20:14:05.159Z,7.57
2019-04-28T20:16:36.363Z,7.40
2019-04-28T20:19:08.112Z,7.31
2019-04-28T20:21:39.434Z,7.44
2019-04-28T20:24:10.735Z,7.49
2019-04-28T20:26:42.374Z,7.32
2019-04-28T20:29:13.745Z,7.30
2019-04-28T20:31:45.040Z,7.21
2019-04-28T20:34:16.448Z,7.23
2019-04-28T20:37:07.247Z,7.29
2019-04-28T20:39:38.870Z,7.20
2019-04-28T20:42:28.574Z,7.07
2019-04-28T20:45:00.243Z,6.98
2019-04-28T20:47:31.580Z,6.88
2019-04-28T20:50:02.819Z,6.98
2019-04-28T20:52:34.039Z,6.91
2019-04-28T20:55:05.380Z,6.81
2019-04-28T20:57:39.448Z,6.69
2019-04-28T21:00:11.050Z,6.57
2019-04-28T21:02:42.666Z,6.42
2019-04-28T21:05:13.858Z,6.59
2019-04-28T21:07:45.429Z,6.47
2019-04-28T21:10:17.047Z,6.59
2019-04-28T21:12:48.311Z,6.79
2019-04-28T21:15:19.493Z,6.86
2019-04-28T21:17:50.859Z,6.95
2019-04-28T21:20:22.044Z,6.76
2019-04-28T21:22:53.259Z,6.66
2019-04-28T21:25:24.635Z,6.79
2019-04-28T21:27:55.837Z,6.78
2019-04-28T21:30:27.047Z,6.90
2019-04-28T21:32:58.260Z,7.00
2019-04-28T21:35:29.716Z,7.07
2019-04-28T21:38:01.126Z,7.11
2019-04-28T21:40:32.754Z,7.13
2019-04-28T21:43:19.834Z,6.58
2019-04-28T21:46:19.281Z,6.70
2019-04-28T21:49:00.478Z,6.62
2019-04-28T21:51:32.232Z,6.54
2019-04-28T21:54:03.531Z,6.59
2019-04-28T21:56:35.610Z,6.70
2019-04-28T21:59:06.998Z,6.77
2019-04-28T22:01:38.693Z,6.77
2019-04-28T22:04:10.031Z,6.83
2019-04-28T22:06:41.495Z,6.81
2019-04-28T22:09:13.231Z,6.72
2019-04-28T22:11:44.640Z,6.61
2019-04-28T22:14:15.974Z,6.47
2019-04-28T22:16:47.513Z,6.55
2019-04-28T22:19:19.041Z,6.69
2019-04-28T22:21:50.709Z,6.68
2019-04-28T22:24:30.976Z,6.76
2019-04-28T22:27:02.307Z,6.83
2019-04-28T22:29:33.690Z,6.83
2019-04-28T22:32:06.180Z,6.76
2019-04-28T22:34:39.170Z,6.76
2019-04-28T22:37:11.954Z,6.79
2019-04-28T22:39:47.064Z,6.76
2019-04-28T22:42:19.455Z,6.52
2019-04-28T22:44:51.424Z,6.51
2019-04-28T22:47:23.143Z,6.38
2019-04-28T22:49:57.507Z,6.38
2019-04-28T22:52:29.836Z,6.44
2019-04-28T22:55:19.952Z,6.46
2019-04-28T22:58:10.356Z,6.50
2019-04-28T23:01:09.799Z,6.36
2019-04-28T23:03:56.243Z,6.24
2019-04-28T23:06:27.520Z,5.99
2019-04-28T23:08:59.098Z,6.03
2019-04-28T23:11:31.476Z,6.01
2019-04-28T23:14:02.662Z,5.96
2019-04-28T23:16:33.918Z,6.12
2019-04-28T23:19:07.234Z,5.96
2019-04-28T23:21:53.664Z,5.93
2019-04-28T23:24:25.541Z,6.07
2019-04-28T23:26:56.970Z,6.07
2019-04-28T23:29:30.641Z,6.00
2019-04-28T23:32:02.314Z,6.05
2019-04-28T23:34:33.607Z,6.09
2019-04-28T23:37:04.775Z,5.90
2019-04-28T23:39:36.098Z,6.02
2019-04-28T23:42:22.558Z,5.98
2019-04-28T23:44:54.059Z,6.01
2019-04-28T23:47:25.497Z,6.08
2019-04-28T23:49:57.468Z,6.12
2019-04-28T23:52:53.407Z,6.18
2019-04-28T23:55:26.005Z,6.14
2019-04-28T23:57:57.256Z,6.08
